sensor_id;sensor_type;location;lat;lon;timestamp;P1;durP1;ratioP1;P2;durP2;ratioP2
67140;SDS011;54058;52.010;5.546;2023-04-25T00:00:12;14.68;;;2.25;;
67140;SDS011;54058;52.010;5.546;2023-04-25T00:02:38;8.65;;;1.67;;
67140;SDS011;54058;52.010;5.546;2023-04-25T00:05:04;6.85;;;1.85;;
67140;SDS011;54058;52.010;5.546;2023-04-25T00:07:30;8.27;;;1.88;;
67140;SDS011;54058;52.010;5.546;2023-04-25T00:09:57;8.38;;;2.00;;
67140;SDS011;54058;52.010;5.546;2023-04-25T00:12:23;10.07;;;2.17;;
67140;SDS011;54058;52.010;5.546;2023-04-25T00:14:49;11.57;;;3.08;;
67140;SDS011;54058;52.010;5.546;2023-04-25T00:17:15;9.95;;;2.30;;
67140;SDS011;54058;52.010;5.546;2023-04-25T00:19:41;11.07;;;2.60;;
67140;SDS011;54058;52.010;5.546;2023-04-25T00:22:09;6.03;;;2.03;;
67140;SDS011;54058;52.010;5.546;2023-04-25T00:24:35;8.02;;;2.08;;
67140;SDS011;54058;52.010;5.546;2023-04-25T00:27:01;11.85;;;2.25;;
67140;SDS011;54058;52.010;5.546;2023-04-25T00:29:26;19.27;;;3.70;;
67140;SDS011;54058;52.010;5.546;2023-04-25T00:31:52;10.15;;;2.28;;
67140;SDS011;54058;52.010;5.546;2023-04-25T00:34:18;7.22;;;2.20;;
67140;SDS011;54058;52.010;5.546;2023-04-25T00:36:43;10.52;;;2.40;;
67140;SDS011;54058;52.010;5.546;2023-04-25T00:39:09;6.63;;;1.95;;
67140;SDS011;54058;52.010;5.546;2023-04-25T00:41:35;14.30;;;2.83;;
67140;SDS011;54058;52.010;5.546;2023-04-25T00:44:01;9.00;;;2.10;;
67140;SDS011;54058;52.010;5.546;2023-04-25T00:46:28;10.65;;;2.40;;
67140;SDS011;54058;52.010;5.546;2023-04-25T00:48:54;15.38;;;2.78;;
67140;SDS011;54058;52.010;5.546;2023-04-25T00:51:20;10.30;;;2.42;;
67140;SDS011;54058;52.010;5.546;2023-04-25T00:53:47;12.30;;;2.45;;
67140;SDS011;54058;52.010;5.546;2023-04-25T00:56:14;23.30;;;2.92;;
67140;SDS011;54058;52.010;5.546;2023-04-25T00:58:41;10.02;;;2.35;;
67140;SDS011;54058;52.010;5.546;2023-04-25T01:01:07;12.48;;;2.88;;
67140;SDS011;54058;52.010;5.546;2023-04-25T01:03:34;13.88;;;2.65;;
67140;SDS011;54058;52.010;5.546;2023-04-25T01:06:07;15.98;;;2.58;;
67140;SDS011;54058;52.010;5.546;2023-04-25T01:08:34;14.30;;;2.85;;
67140;SDS011;54058;52.010;5.546;2023-04-25T01:11:00;14.43;;;2.83;;
67140;SDS011;54058;52.010;5.546;2023-04-25T01:13:26;13.13;;;2.28;;
67140;SDS011;54058;52.010;5.546;2023-04-25T01:15:52;11.25;;;2.72;;
67140;SDS011;54058;52.010;5.546;2023-04-25T01:18:18;12.52;;;2.28;;
67140;SDS011;54058;52.010;5.546;2023-04-25T01:20:45;13.02;;;3.05;;
67140;SDS011;54058;52.010;5.546;2023-04-25T01:23:12;17.33;;;2.78;;
67140;SDS011;54058;52.010;5.546;2023-04-25T01:25:38;12.33;;;2.53;;
67140;SDS011;54058;52.010;5.546;2023-04-25T01:28:05;12.83;;;2.30;;
67140;SDS011;54058;52.010;5.546;2023-04-25T01:30:31;15.32;;;3.35;;
67140;SDS011;54058;52.010;5.546;2023-04-25T01:32:57;12.65;;;2.60;;
67140;SDS011;54058;52.010;5.546;2023-04-25T01:35:25;10.75;;;2.25;;
67140;SDS011;54058;52.010;5.546;2023-04-25T01:37:50;9.85;;;2.20;;
67140;SDS011;54058;52.010;5.546;2023-04-25T01:40:16;15.07;;;2.20;;
67140;SDS011;54058;52.010;5.546;2023-04-25T01:42:44;11.10;;;2.30;;
67140;SDS011;54058;52.010;5.546;2023-04-25T01:45:10;13.32;;;2.22;;
67140;SDS011;54058;52.010;5.546;2023-04-25T01:47:36;13.07;;;2.60;;
67140;SDS011;54058;52.010;5.546;2023-04-25T01:50:04;12.13;;;2.28;;
67140;SDS011;54058;52.010;5.546;2023-04-25T01:52:32;10.32;;;2.90;;
67140;SDS011;54058;52.010;5.546;2023-04-25T01:54:58;10.13;;;1.98;;
67140;SDS011;54058;52.010;5.546;2023-04-25T01:57:26;18.02;;;3.20;;
67140;SDS011;54058;52.010;5.546;2023-04-25T01:59:53;14.65;;;2.42;;
67140;SDS011;54058;52.010;5.546;2023-04-25T02:02:24;11.05;;;2.72;;
67140;SDS011;54058;52.010;5.546;2023-04-25T02:04:51;14.27;;;2.45;;
67140;SDS011;54058;52.010;5.546;2023-04-25T02:07:16;10.23;;;2.17;;
67140;SDS011;54058;52.010;5.546;2023-04-25T02:09:42;12.48;;;2.35;;
67140;SDS011;54058;52.010;5.546;2023-04-25T02:12:09;11.18;;;3.40;;
67140;SDS011;54058;52.010;5.546;2023-04-25T02:14:35;8.52;;;2.13;;
67140;SDS011;54058;52.010;5.546;2023-04-25T02:17:00;11.02;;;2.42;;
67140;SDS011;54058;52.010;5.546;2023-04-25T02:19:26;13.23;;;2.22;;
67140;SDS011;54058;52.010;5.546;2023-04-25T02:21:52;8.13;;;1.92;;
67140;SDS011;54058;52.010;5.546;2023-04-25T02:24:18;11.43;;;2.38;;
67140;SDS011;54058;52.010;5.546;2023-04-25T02:26:44;7.60;;;1.90;;
67140;SDS011;54058;52.010;5.546;2023-04-25T02:29:09;9.27;;;2.30;;
67140;SDS011;54058;52.010;5.546;2023-04-25T02:31:35;15.02;;;2.45;;
67140;SDS011;54058;52.010;5.546;2023-04-25T02:34:01;8.60;;;1.75;;
67140;SDS011;54058;52.010;5.546;2023-04-25T02:36:26;15.30;;;2.33;;
67140;SDS011;54058;52.010;5.546;2023-04-25T02:38:52;10.85;;;1.92;;
67140;SDS011;54058;52.010;5.546;2023-04-25T02:41:18;12.43;;;2.03;;
67140;SDS011;54058;52.010;5.546;2023-04-25T02:43:45;10.75;;;2.10;;
67140;SDS011;54058;52.010;5.546;2023-04-25T02:46:11;7.90;;;2.33;;
67140;SDS011;54058;52.010;5.546;2023-04-25T02:48:36;16.33;;;2.95;;
67140;SDS011;54058;52.010;5.546;2023-04-25T02:51:02;10.25;;;1.95;;
67140;SDS011;54058;52.010;5.546;2023-04-25T02:53:28;12.65;;;2.15;;
67140;SDS011;54058;52.010;5.546;2023-04-25T02:55:53;9.15;;;1.80;;
67140;SDS011;54058;52.010;5.546;2023-04-25T02:58:19;8.95;;;2.00;;
67140;SDS011;54058;52.010;5.546;2023-04-25T03:00:45;9.57;;;1.58;;
67140;SDS011;54058;52.010;5.546;2023-04-25T03:03:10;12.25;;;2.33;;
67140;SDS011;54058;52.010;5.546;2023-04-25T03:05:36;5.45;;;1.55;;
67140;SDS011;54058;52.010;5.546;2023-04-25T03:08:01;9.57;;;3.30;;
67140;SDS011;54058;52.010;5.546;2023-04-25T03:10:28;13.93;;;1.88;;
67140;SDS011;54058;52.010;5.546;2023-04-25T03:12:53;13.50;;;2.80;;
67140;SDS011;54058;52.010;5.546;2023-04-25T03:15:19;15.30;;;2.72;;
67140;SDS011;54058;52.010;5.546;2023-04-25T03:17:44;10.70;;;1.92;;
67140;SDS011;54058;52.010;5.546;2023-04-25T03:20:10;10.13;;;2.40;;
67140;SDS011;54058;52.010;5.546;2023-04-25T03:22:37;13.65;;;2.92;;
67140;SDS011;54058;52.010;5.546;2023-04-25T03:25:02;11.85;;;2.42;;
67140;SDS011;54058;52.010;5.546;2023-04-25T03:27:28;13.88;;;2.60;;
67140;SDS011;54058;52.010;5.546;2023-04-25T03:29:54;10.82;;;2.83;;
67140;SDS011;54058;52.010;5.546;2023-04-25T03:32:20;9.77;;;2.10;;
67140;SDS011;54058;52.010;5.546;2023-04-25T03:34:45;10.13;;;2.58;;
67140;SDS011;54058;52.010;5.546;2023-04-25T03:37:11;11.90;;;2.70;;
67140;SDS011;54058;52.010;5.546;2023-04-25T03:39:36;15.75;;;2.65;;
67140;SDS011;54058;52.010;5.546;2023-04-25T03:42:03;17.87;;;2.80;;
67140;SDS011;54058;52.010;5.546;2023-04-25T03:44:29;7.50;;;2.65;;
67140;SDS011;54058;52.010;5.546;2023-04-25T03:46:54;8.82;;;2.65;;
67140;SDS011;54058;52.010;5.546;2023-04-25T03:49:20;9.07;;;2.78;;
67140;SDS011;54058;52.010;5.546;2023-04-25T03:51:45;13.82;;;3.22;;
67140;SDS011;54058;52.010;5.546;2023-04-25T03:54:11;8.05;;;2.45;;
67140;SDS011;54058;52.010;5.546;2023-04-25T03:56:37;16.23;;;3.10;;
67140;SDS011;54058;52.010;5.546;2023-04-25T03:59:02;8.75;;;3.25;;
67140;SDS011;54058;52.010;5.546;2023-04-25T04:01:28;11.32;;;2.30;;
67140;SDS011;54058;52.010;5.546;2023-04-25T04:03:54;10.98;;;3.00;;
67140;SDS011;54058;52.010;5.546;2023-04-25T04:06:19;11.32;;;2.50;;
67140;SDS011;54058;52.010;5.546;2023-04-25T04:08:45;17.90;;;3.40;;
67140;SDS011;54058;52.010;5.546;2023-04-25T04:11:11;9.43;;;2.58;;
67140;SDS011;54058;52.010;5.546;2023-04-25T04:13:37;13.25;;;2.65;;
67140;SDS011;54058;52.010;5.546;2023-04-25T04:16:03;11.98;;;2.67;;
67140;SDS011;54058;52.010;5.546;2023-04-25T04:18:29;9.35;;;2.40;;
67140;SDS011;54058;52.010;5.546;2023-04-25T04:20:55;9.35;;;2.47;;
67140;SDS011;54058;52.010;5.546;2023-04-25T04:23:22;13.27;;;2.70;;
67140;SDS011;54058;52.010;5.546;2023-04-25T04:25:48;10.00;;;2.85;;
67140;SDS011;54058;52.010;5.546;2023-04-25T04:28:14;14.25;;;2.58;;
67140;SDS011;54058;52.010;5.546;2023-04-25T04:30:41;17.83;;;3.08;;
67140;SDS011;54058;52.010;5.546;2023-04-25T04:33:07;15.23;;;2.95;;
67140;SDS011;54058;52.010;5.546;2023-04-25T04:35:34;10.88;;;2.60;;
67140;SDS011;54058;52.010;5.546;2023-04-25T04:37:59;6.43;;;1.92;;
67140;SDS011;54058;52.010;5.546;2023-04-25T04:40:25;9.80;;;2.03;;
67140;SDS011;54058;52.010;5.546;2023-04-25T04:42:51;11.38;;;2.05;;
67140;SDS011;54058;52.010;5.546;2023-04-25T04:45:18;11.52;;;2.05;;
67140;SDS011;54058;52.010;5.546;2023-04-25T04:47:43;16.67;;;2.67;;
67140;SDS011;54058;52.010;5.546;2023-04-25T04:50:09;12.10;;;2.35;;
67140;SDS011;54058;52.010;5.546;2023-04-25T04:52:35;10.30;;;2.78;;
67140;SDS011;54058;52.010;5.546;2023-04-25T04:55:02;7.75;;;2.55;;
67140;SDS011;54058;52.010;5.546;2023-04-25T04:57:29;11.90;;;2.13;;
67140;SDS011;54058;52.010;5.546;2023-04-25T04:59:55;10.75;;;2.53;;
67140;SDS011;54058;52.010;5.546;2023-04-25T05:02:21;11.30;;;2.40;;
67140;SDS011;54058;52.010;5.546;2023-04-25T05:04:47;11.18;;;2.15;;
67140;SDS011;54058;52.010;5.546;2023-04-25T05:07:13;11.18;;;3.45;;
67140;SDS011;54058;52.010;5.546;2023-04-25T05:09:38;10.30;;;1.65;;
67140;SDS011;54058;52.010;5.546;2023-04-25T05:12:04;7.55;;;1.80;;
67140;SDS011;54058;52.010;5.546;2023-04-25T05:14:30;11.02;;;2.08;;
67140;SDS011;54058;52.010;5.546;2023-04-25T05:16:55;9.35;;;2.50;;
67140;SDS011;54058;52.010;5.546;2023-04-25T05:19:21;9.23;;;2.75;;
67140;SDS011;54058;52.010;5.546;2023-04-25T05:21:47;10.63;;;1.90;;
67140;SDS011;54058;52.010;5.546;2023-04-25T05:24:12;7.70;;;1.95;;
67140;SDS011;54058;52.010;5.546;2023-04-25T05:26:38;7.13;;;1.90;;
67140;SDS011;54058;52.010;5.546;2023-04-25T05:29:03;6.70;;;1.75;;
67140;SDS011;54058;52.010;5.546;2023-04-25T05:31:30;9.93;;;2.20;;
67140;SDS011;54058;52.010;5.546;2023-04-25T05:33:56;6.13;;;1.60;;
67140;SDS011;54058;52.010;5.546;2023-04-25T05:36:22;13.82;;;1.83;;
67140;SDS011;54058;52.010;5.546;2023-04-25T05:38:48;10.10;;;1.98;;
67140;SDS011;54058;52.010;5.546;2023-04-25T05:41:13;7.25;;;1.70;;
67140;SDS011;54058;52.010;5.546;2023-04-25T05:43:39;6.30;;;1.38;;
67140;SDS011;54058;52.010;5.546;2023-04-25T05:46:10;7.93;;;2.10;;
67140;SDS011;54058;52.010;5.546;2023-04-25T05:48:36;9.02;;;1.85;;
67140;SDS011;54058;52.010;5.546;2023-04-25T05:51:02;10.40;;;1.58;;
67140;SDS011;54058;52.010;5.546;2023-04-25T05:53:28;7.05;;;1.70;;
67140;SDS011;54058;52.010;5.546;2023-04-25T05:55:53;12.27;;;2.50;;
67140;SDS011;54058;52.010;5.546;2023-04-25T05:58:19;8.15;;;1.55;;
67140;SDS011;54058;52.010;5.546;2023-04-25T06:00:45;11.23;;;1.60;;
67140;SDS011;54058;52.010;5.546;2023-04-25T06:03:11;7.10;;;2.50;;
67140;SDS011;54058;52.010;5.546;2023-04-25T06:05:40;8.23;;;2.00;;
67140;SDS011;54058;52.010;5.546;2023-04-25T06:08:07;6.10;;;1.58;;
67140;SDS011;54058;52.010;5.546;2023-04-25T06:10:32;6.65;;;1.80;;
67140;SDS011;54058;52.010;5.546;2023-04-25T06:12:58;9.32;;;1.85;;
67140;SDS011;54058;52.010;5.546;2023-04-25T06:15:24;11.38;;;1.95;;
67140;SDS011;54058;52.010;5.546;2023-04-25T06:17:49;4.60;;;1.48;;
67140;SDS011;54058;52.010;5.546;2023-04-25T06:20:15;9.98;;;1.83;;
67140;SDS011;54058;52.010;5.546;2023-04-25T06:22:41;9.23;;;2.08;;
67140;SDS011;54058;52.010;5.546;2023-04-25T06:25:06;8.25;;;1.95;;
67140;SDS011;54058;52.010;5.546;2023-04-25T06:27:33;12.07;;;2.15;;
67140;SDS011;54058;52.010;5.546;2023-04-25T06:29:59;6.33;;;1.30;;
67140;SDS011;54058;52.010;5.546;2023-04-25T06:32:24;7.20;;;1.67;;
67140;SDS011;54058;52.010;5.546;2023-04-25T06:34:52;9.38;;;1.73;;
67140;SDS011;54058;52.010;5.546;2023-04-25T06:37:18;12.55;;;1.60;;
67140;SDS011;54058;52.010;5.546;2023-04-25T06:39:44;9.27;;;1.75;;
67140;SDS011;54058;52.010;5.546;2023-04-25T06:42:09;7.78;;;1.40;;
67140;SDS011;54058;52.010;5.546;2023-04-25T06:44:35;7.32;;;1.80;;
67140;SDS011;54058;52.010;5.546;2023-04-25T06:47:01;8.98;;;1.42;;
67140;SDS011;54058;52.010;5.546;2023-04-25T06:49:27;12.32;;;2.20;;
67140;SDS011;54058;52.010;5.546;2023-04-25T06:51:52;15.45;;;1.88;;
67140;SDS011;54058;52.010;5.546;2023-04-25T06:54:18;9.57;;;2.22;;
67140;SDS011;54058;52.010;5.546;2023-04-25T06:56:44;8.90;;;1.58;;
67140;SDS011;54058;52.010;5.546;2023-04-25T06:59:09;10.30;;;1.38;;
67140;SDS011;54058;52.010;5.546;2023-04-25T07:01:35;15.55;;;2.00;;
67140;SDS011;54058;52.010;5.546;2023-04-25T07:04:01;6.72;;;1.67;;
67140;SDS011;54058;52.010;5.546;2023-04-25T07:06:26;9.52;;;1.27;;
67140;SDS011;54058;52.010;5.546;2023-04-25T07:08:53;8.60;;;1.52;;
67140;SDS011;54058;52.010;5.546;2023-04-25T07:11:19;7.77;;;1.50;;
67140;SDS011;54058;52.010;5.546;2023-04-25T07:13:44;5.22;;;1.33;;
67140;SDS011;54058;52.010;5.546;2023-04-25T07:16:10;9.95;;;1.50;;
67140;SDS011;54058;52.010;5.546;2023-04-25T07:18:36;11.88;;;2.05;;
67140;SDS011;54058;52.010;5.546;2023-04-25T07:21:01;13.82;;;1.98;;
67140;SDS011;54058;52.010;5.546;2023-04-25T07:23:27;10.93;;;2.08;;
67140;SDS011;54058;52.010;5.546;2023-04-25T07:25:53;9.00;;;1.88;;
67140;SDS011;54058;52.010;5.546;2023-04-25T07:28:19;10.07;;;1.60;;
67140;SDS011;54058;52.010;5.546;2023-04-25T07:30:45;13.25;;;2.40;;
67140;SDS011;54058;52.010;5.546;2023-04-25T07:33:10;9.48;;;1.38;;
67140;SDS011;54058;52.010;5.546;2023-04-25T07:35:36;9.43;;;1.75;;
67140;SDS011;54058;52.010;5.546;2023-04-25T07:38:02;12.15;;;1.73;;
67140;SDS011;54058;52.010;5.546;2023-04-25T07:40:28;5.97;;;1.53;;
67140;SDS011;54058;52.010;5.546;2023-04-25T07:42:54;15.93;;;1.80;;
67140;SDS011;54058;52.010;5.546;2023-04-25T07:45:19;9.63;;;1.70;;
67140;SDS011;54058;52.010;5.546;2023-04-25T07:47:45;7.20;;;1.70;;
67140;SDS011;54058;52.010;5.546;2023-04-25T07:50:11;12.77;;;1.92;;
67140;SDS011;54058;52.010;5.546;2023-04-25T07:52:36;9.48;;;1.60;;
67140;SDS011;54058;52.010;5.546;2023-04-25T07:55:02;9.75;;;1.52;;
67140;SDS011;54058;52.010;5.546;2023-04-25T07:57:28;12.82;;;1.70;;
67140;SDS011;54058;52.010;5.546;2023-04-25T07:59:54;8.50;;;1.83;;
67140;SDS011;54058;52.010;5.546;2023-04-25T08:02:20;7.15;;;1.38;;
67140;SDS011;54058;52.010;5.546;2023-04-25T08:04:45;10.98;;;1.77;;
67140;SDS011;54058;52.010;5.546;2023-04-25T08:07:11;14.75;;;1.88;;
67140;SDS011;54058;52.010;5.546;2023-04-25T08:09:37;7.40;;;1.58;;
67140;SDS011;54058;52.010;5.546;2023-04-25T08:12:03;10.60;;;1.42;;
67140;SDS011;54058;52.010;5.546;2023-04-25T08:14:29;9.00;;;1.70;;
67140;SDS011;54058;52.010;5.546;2023-04-25T08:17:00;7.97;;;1.50;;
67140;SDS011;54058;52.010;5.546;2023-04-25T08:19:26;6.97;;;1.65;;
67140;SDS011;54058;52.010;5.546;2023-04-25T08:21:52;6.78;;;1.50;;
67140;SDS011;54058;52.010;5.546;2023-04-25T08:24:18;10.48;;;1.55;;
67140;SDS011;54058;52.010;5.546;2023-04-25T08:26:43;9.32;;;1.30;;
67140;SDS011;54058;52.010;5.546;2023-04-25T08:29:09;5.85;;;1.50;;
67140;SDS011;54058;52.010;5.546;2023-04-25T08:31:34;9.77;;;1.98;;
67140;SDS011;54058;52.010;5.546;2023-04-25T08:34:00;8.52;;;1.40;;
67140;SDS011;54058;52.010;5.546;2023-04-25T08:36:25;6.88;;;1.38;;
67140;SDS011;54058;52.010;5.546;2023-04-25T08:38:53;6.28;;;1.23;;
67140;SDS011;54058;52.010;5.546;2023-04-25T08:41:19;8.63;;;1.60;;
67140;SDS011;54058;52.010;5.546;2023-04-25T08:43:46;8.93;;;1.58;;
67140;SDS011;54058;52.010;5.546;2023-04-25T08:46:13;5.45;;;1.15;;
67140;SDS011;54058;52.010;5.546;2023-04-25T08:48:43;10.32;;;1.50;;
67140;SDS011;54058;52.010;5.546;2023-04-25T08:51:10;9.80;;;2.30;;
67140;SDS011;54058;52.010;5.546;2023-04-25T08:53:48;5.47;;;1.20;;
67140;SDS011;54058;52.010;5.546;2023-04-25T08:56:16;4.70;;;1.25;;
67140;SDS011;54058;52.010;5.546;2023-04-25T08:58:50;11.23;;;1.40;;
67140;SDS011;54058;52.010;5.546;2023-04-25T09:01:17;4.32;;;1.13;;
67140;SDS011;54058;52.010;5.546;2023-04-25T09:03:43;4.78;;;1.00;;
67140;SDS011;54058;52.010;5.546;2023-04-25T09:06:13;6.53;;;1.20;;
67140;SDS011;54058;52.010;5.546;2023-04-25T09:08:39;8.48;;;0.93;;
67140;SDS011;54058;52.010;5.546;2023-04-25T09:11:06;5.53;;;1.20;;
67140;SDS011;54058;52.010;5.546;2023-04-25T09:13:32;10.13;;;1.17;;
67140;SDS011;54058;52.010;5.546;2023-04-25T09:15:57;6.63;;;1.10;;
67140;SDS011;54058;52.010;5.546;2023-04-25T09:18:27;8.27;;;0.95;;
67140;SDS011;54058;52.010;5.546;2023-04-25T09:20:55;11.55;;;1.25;;
67140;SDS011;54058;52.010;5.546;2023-04-25T09:23:38;5.97;;;1.00;;
67140;SDS011;54058;52.010;5.546;2023-04-25T09:26:15;3.65;;;1.05;;
67140;SDS011;54058;52.010;5.546;2023-04-25T09:28:42;5.63;;;1.05;;
67140;SDS011;54058;52.010;5.546;2023-04-25T09:31:09;3.47;;;0.90;;
67140;SDS011;54058;52.010;5.546;2023-04-25T09:33:38;7.13;;;1.30;;
67140;SDS011;54058;52.010;5.546;2023-04-25T09:36:06;7.15;;;1.15;;
67140;SDS011;54058;52.010;5.546;2023-04-25T09:38:40;7.78;;;1.70;;
67140;SDS011;54058;52.010;5.546;2023-04-25T09:41:07;5.88;;;1.10;;
67140;SDS011;54058;52.010;5.546;2023-04-25T09:43:34;3.55;;;0.93;;
67140;SDS011;54058;52.010;5.546;2023-04-25T09:46:00;8.00;;;1.20;;
67140;SDS011;54058;52.010;5.546;2023-04-25T09:48:26;7.68;;;1.25;;
67140;SDS011;54058;52.010;5.546;2023-04-25T09:53:28;3.97;;;1.08;;
67140;SDS011;54058;52.010;5.546;2023-04-25T09:55:54;6.38;;;1.20;;
67140;SDS011;54058;52.010;5.546;2023-04-25T09:58:21;7.07;;;1.10;;
67140;SDS011;54058;52.010;5.546;2023-04-25T10:00:49;4.07;;;1.10;;
67140;SDS011;54058;52.010;5.546;2023-04-25T10:03:17;8.27;;;1.27;;
67140;SDS011;54058;52.010;5.546;2023-04-25T10:05:42;8.15;;;1.08;;
67140;SDS011;54058;52.010;5.546;2023-04-25T10:08:09;6.20;;;1.48;;
67140;SDS011;54058;52.010;5.546;2023-04-25T10:10:36;8.40;;;1.40;;
67140;SDS011;54058;52.010;5.546;2023-04-25T10:13:04;8.82;;;1.30;;
67140;SDS011;54058;52.010;5.546;2023-04-25T10:15:32;8.40;;;1.40;;
67140;SDS011;54058;52.010;5.546;2023-04-25T10:18:00;5.72;;;1.23;;
67140;SDS011;54058;52.010;5.546;2023-04-25T10:20:26;5.15;;;1.45;;
67140;SDS011;54058;52.010;5.546;2023-04-25T10:22:52;6.93;;;1.10;;
67140;SDS011;54058;52.010;5.546;2023-04-25T10:25:21;6.18;;;1.38;;
67140;SDS011;54058;52.010;5.546;2023-04-25T10:27:50;3.95;;;0.93;;
67140;SDS011;54058;52.010;5.546;2023-04-25T10:30:17;7.30;;;1.10;;
67140;SDS011;54058;52.010;5.546;2023-04-25T10:32:43;8.50;;;1.52;;
67140;SDS011;54058;52.010;5.546;2023-04-25T10:35:17;4.90;;;1.08;;
67140;SDS011;54058;52.010;5.546;2023-04-25T10:38:04;4.72;;;1.45;;
67140;SDS011;54058;52.010;5.546;2023-04-25T10:40:30;8.52;;;1.08;;
67140;SDS011;54058;52.010;5.546;2023-04-25T10:43:33;7.43;;;1.15;;
67140;SDS011;54058;52.010;5.546;2023-04-25T10:46:02;5.30;;;1.38;;
67140;SDS011;54058;52.010;5.546;2023-04-25T10:48:37;8.25;;;1.15;;
67140;SDS011;54058;52.010;5.546;2023-04-25T10:51:09;4.15;;;0.93;;
67140;SDS011;54058;52.010;5.546;2023-04-25T10:53:35;3.65;;;1.30;;
67140;SDS011;54058;52.010;5.546;2023-04-25T10:56:09;4.78;;;1.00;;
67140;SDS011;54058;52.010;5.546;2023-04-25T10:58:35;4.28;;;1.00;;
67140;SDS011;54058;52.010;5.546;2023-04-25T11:01:01;6.10;;;1.00;;
67140;SDS011;54058;52.010;5.546;2023-04-25T11:03:27;5.45;;;1.00;;
67140;SDS011;54058;52.010;5.546;2023-04-25T11:05:52;5.45;;;1.00;;
67140;SDS011;54058;52.010;5.546;2023-04-25T11:08:21;9.27;;;0.80;;
67140;SDS011;54058;52.010;5.546;2023-04-25T11:11:00;6.82;;;0.90;;
67140;SDS011;54058;52.010;5.546;2023-04-25T11:13:30;7.93;;;1.40;;
67140;SDS011;54058;52.010;5.546;2023-04-25T11:15:55;3.83;;;1.00;;
67140;SDS011;54058;52.010;5.546;2023-04-25T11:18:21;4.30;;;0.90;;
67140;SDS011;54058;52.010;5.546;2023-04-25T11:20:50;10.40;;;1.85;;
67140;SDS011;54058;52.010;5.546;2023-04-25T11:23:16;5.82;;;1.10;;
67140;SDS011;54058;52.010;5.546;2023-04-25T11:25:42;6.05;;;1.45;;
67140;SDS011;54058;52.010;5.546;2023-04-25T11:28:09;5.70;;;0.93;;
67140;SDS011;54058;52.010;5.546;2023-04-25T11:30:35;4.20;;;1.10;;
67140;SDS011;54058;52.010;5.546;2023-04-25T11:33:00;6.45;;;1.10;;
67140;SDS011;54058;52.010;5.546;2023-04-25T11:35:28;5.70;;;0.93;;
67140;SDS011;54058;52.010;5.546;2023-04-25T11:37:53;3.65;;;0.80;;
67140;SDS011;54058;52.010;5.546;2023-04-25T11:40:19;6.32;;;1.48;;
67140;SDS011;54058;52.010;5.546;2023-04-25T11:42:46;5.53;;;1.25;;
67140;SDS011;54058;52.010;5.546;2023-04-25T11:45:12;4.60;;;1.20;;
67140;SDS011;54058;52.010;5.546;2023-04-25T11:47:38;8.45;;;1.30;;
67140;SDS011;54058;52.010;5.546;2023-04-25T11:50:05;8.27;;;1.15;;
67140;SDS011;54058;52.010;5.546;2023-04-25T11:52:42;3.65;;;1.17;;
67140;SDS011;54058;52.010;5.546;2023-04-25T11:55:12;7.05;;;1.23;;
67140;SDS011;54058;52.010;5.546;2023-04-25T11:57:39;7.80;;;0.95;;
67140;SDS011;54058;52.010;5.546;2023-04-25T12:02:34;5.50;;;1.17;;
67140;SDS011;54058;52.010;5.546;2023-04-25T12:05:01;6.38;;;1.23;;
67140;SDS011;54058;52.010;5.546;2023-04-25T12:07:30;4.75;;;1.00;;
67140;SDS011;54058;52.010;5.546;2023-04-25T12:09:55;6.30;;;1.00;;
67140;SDS011;54058;52.010;5.546;2023-04-25T12:12:21;6.40;;;0.93;;
67140;SDS011;54058;52.010;5.546;2023-04-25T12:14:47;6.18;;;1.20;;
67140;SDS011;54058;52.010;5.546;2023-04-25T12:17:13;6.78;;;1.15;;
67140;SDS011;54058;52.010;5.546;2023-04-25T12:19:39;3.92;;;1.30;;
67140;SDS011;54058;52.010;5.546;2023-04-25T12:22:19;13.63;;;1.25;;
67140;SDS011;54058;52.010;5.546;2023-04-25T12:24:46;5.32;;;1.10;;
67140;SDS011;54058;52.010;5.546;2023-04-25T12:27:13;3.78;;;0.98;;
67140;SDS011;54058;52.010;5.546;2023-04-25T12:29:53;5.18;;;1.35;;
67140;SDS011;54058;52.010;5.546;2023-04-25T12:32:20;2.20;;;1.00;;
67140;SDS011;54058;52.010;5.546;2023-04-25T12:34:46;5.95;;;0.98;;
67140;SDS011;54058;52.010;5.546;2023-04-25T12:37:12;7.20;;;1.33;;
67140;SDS011;54058;52.010;5.546;2023-04-25T12:39:38;5.03;;;1.08;;
67140;SDS011;54058;52.010;5.546;2023-04-25T12:42:04;5.68;;;1.40;;
67140;SDS011;54058;52.010;5.546;2023-04-25T12:44:32;5.57;;;1.30;;
67140;SDS011;54058;52.010;5.546;2023-04-25T12:46:58;3.53;;;0.85;;
67140;SDS011;54058;52.010;5.546;2023-04-25T12:49:24;9.13;;;1.30;;
67140;SDS011;54058;52.010;5.546;2023-04-25T12:51:50;9.93;;;1.23;;
67140;SDS011;54058;52.010;5.546;2023-04-25T12:54:16;5.97;;;1.20;;
67140;SDS011;54058;52.010;5.546;2023-04-25T12:56:42;5.93;;;1.15;;
67140;SDS011;54058;52.010;5.546;2023-04-25T12:59:08;4.82;;;1.00;;
67140;SDS011;54058;52.010;5.546;2023-04-25T13:01:34;5.28;;;1.27;;
67140;SDS011;54058;52.010;5.546;2023-04-25T13:04:00;4.57;;;0.90;;
67140;SDS011;54058;52.010;5.546;2023-04-25T13:06:26;4.57;;;1.23;;
67140;SDS011;54058;52.010;5.546;2023-04-25T13:08:52;6.57;;;1.15;;
67140;SDS011;54058;52.010;5.546;2023-04-25T13:11:17;6.97;;;1.15;;
67140;SDS011;54058;52.010;5.546;2023-04-25T13:13:43;7.53;;;1.05;;
67140;SDS011;54058;52.010;5.546;2023-04-25T13:16:09;4.00;;;0.87;;
67140;SDS011;54058;52.010;5.546;2023-04-25T13:18:36;5.93;;;1.02;;
67140;SDS011;54058;52.010;5.546;2023-04-25T13:21:02;4.80;;;0.90;;
67140;SDS011;54058;52.010;5.546;2023-04-25T13:23:28;3.95;;;0.95;;
67140;SDS011;54058;52.010;5.546;2023-04-25T13:25:54;7.15;;;1.15;;
67140;SDS011;54058;52.010;5.546;2023-04-25T13:28:22;3.25;;;1.00;;
67140;SDS011;54058;52.010;5.546;2023-04-25T13:30:51;8.93;;;1.05;;
67140;SDS011;54058;52.010;5.546;2023-04-25T13:33:17;4.68;;;0.98;;
67140;SDS011;54058;52.010;5.546;2023-04-25T13:35:43;3.47;;;1.23;;
67140;SDS011;54058;52.010;5.546;2023-04-25T13:38:11;4.82;;;1.05;;
67140;SDS011;54058;52.010;5.546;2023-04-25T13:40:38;4.37;;;1.10;;
67140;SDS011;54058;52.010;5.546;2023-04-25T13:43:03;6.72;;;1.05;;
67140;SDS011;54058;52.010;5.546;2023-04-25T13:45:29;7.95;;;0.80;;
67140;SDS011;54058;52.010;5.546;2023-04-25T13:47:55;12.48;;;1.40;;
67140;SDS011;54058;52.010;5.546;2023-04-25T13:50:20;4.82;;;1.20;;
67140;SDS011;54058;52.010;5.546;2023-04-25T13:52:46;11.52;;;1.40;;
67140;SDS011;54058;52.010;5.546;2023-04-25T13:55:12;4.43;;;1.08;;
67140;SDS011;54058;52.010;5.546;2023-04-25T13:57:38;5.18;;;1.02;;
67140;SDS011;54058;52.010;5.546;2023-04-25T14:00:04;4.32;;;1.00;;
67140;SDS011;54058;52.010;5.546;2023-04-25T14:02:37;7.40;;;1.30;;
67140;SDS011;54058;52.010;5.546;2023-04-25T14:05:03;5.85;;;1.42;;
67140;SDS011;54058;52.010;5.546;2023-04-25T14:07:30;4.97;;;1.27;;
67140;SDS011;54058;52.010;5.546;2023-04-25T14:09:56;7.22;;;1.40;;
67140;SDS011;54058;52.010;5.546;2023-04-25T14:12:22;5.03;;;1.10;;
67140;SDS011;54058;52.010;5.546;2023-04-25T14:14:48;7.57;;;1.37;;
67140;SDS011;54058;52.010;5.546;2023-04-25T14:17:14;5.88;;;1.15;;
67140;SDS011;54058;52.010;5.546;2023-04-25T14:19:40;5.55;;;1.00;;
67140;SDS011;54058;52.010;5.546;2023-04-25T14:22:10;7.68;;;1.38;;
67140;SDS011;54058;52.010;5.546;2023-04-25T14:24:36;9.70;;;1.33;;
67140;SDS011;54058;52.010;5.546;2023-04-25T14:27:02;10.55;;;1.30;;
67140;SDS011;54058;52.010;5.546;2023-04-25T14:29:28;8.18;;;1.23;;
67140;SDS011;54058;52.010;5.546;2023-04-25T14:31:54;4.53;;;1.20;;
67140;SDS011;54058;52.010;5.546;2023-04-25T14:34:19;11.35;;;1.33;;
67140;SDS011;54058;52.010;5.546;2023-04-25T14:36:45;10.57;;;1.30;;
67140;SDS011;54058;52.010;5.546;2023-04-25T14:39:11;7.07;;;1.30;;
67140;SDS011;54058;52.010;5.546;2023-04-25T14:41:37;2.95;;;0.80;;
67140;SDS011;54058;52.010;5.546;2023-04-25T14:44:03;8.32;;;1.20;;